Sd416 Nippon — SKPF — position and weather

sailwx.info

Track history (hours):
 
Tides and Currents Weather Stations Pressure Air Temp Water Temp Dewpoint Dewpoint Depression Visibility Wind Speed Wind Dir Waves Ship Positions

Sd416 Nippon

Last reported at 2017-Mar-28 15:33 UTC. Time now 2017-Mar-28 15:52 UTC.
Position N 58°52' E 010°40'.

Length 17 m; draft 2.5 m.

Type: Fishing. MMSI: 266163000.

Date/timePositionNaut miles runAvg speedWind from/ knotsBaromVisibWave heightAir tempDewpointWater temp
2017-Mar-28 15:33N 58°52' E 010°40'1 1.4
2017-Mar-28 14:33N 58°51' E 010°42'1 1.3
2017-Mar-28 13:33N 58°50' E 010°43'1 1.2
2017-Mar-28 12:34N 58°50' E 010°45'1 1.4
2017-Mar-28 11:33N 58°51' E 010°46'1 1.3
2017-Mar-28 10:33N 58°52' E 010°46'1 1.1
2017-Mar-28 09:33N 58°51' E 010°44'1 0.7
2017-Mar-28 08:33N 58°51' E 010°44'1 1.0
2017-Mar-28 07:33N 58°50' E 010°46'1 1.4
2017-Mar-28 06:33N 58°51' E 010°48'1 1.3
2017-Mar-28 05:33N 58°52' E 010°48'1 1.5
2017-Mar-28 04:33N 58°53' E 010°49'0 0.1
2017-Mar-28 03:34N 58°53' E 010°49'0 0.3
2017-Mar-28 02:33N 58°53' E 010°48'1 1.2
2017-Mar-28 01:33N 58°54' E 010°50'1 1.1
2017-Mar-28 00:33N 58°53' E 010°49'1 1.3
2017-Mar-27 23:33N 58°52' E 010°47'1 1.4
2017-Mar-27 22:34N 58°51' E 010°47'1 1.2
2017-Mar-27 21:33N 58°51' E 010°50'1 1.2
2017-Mar-27 20:34N 58°49' E 010°49'1 1.5
2017-Mar-27 19:33N 58°48' E 010°48'1 1.1
2017-Mar-27 18:33N 58°48' E 010°46'1 1.4
2017-Mar-27 17:33N 58°49' E 010°46'1 1.3
2017-Mar-27 16:33N 58°50' E 010°46'1 1.3
2017-Mar-27 15:33N 58°51' E 010°44'1 0.8
2017-Mar-27 14:33N 58°51' E 010°42'1 1.4
2017-Mar-27 13:34N 58°50' E 010°43'1 1.3
2017-Mar-27 12:33N 58°48' E 010°43'1 1.3
2017-Mar-27 11:33N 58°47' E 010°43'1 1.4
2017-Mar-27 10:34N 58°46' E 010°44'1 1.1
2017-Mar-27 09:33N 58°47' E 010°43'1 1.5
2017-Mar-27 08:33N 58°48' E 010°43'1 1.4
2017-Mar-27 07:33N 58°50' E 010°45'1 1.2
2017-Mar-27 06:33N 58°49' E 010°46'1 1.4
2017-Mar-27 05:33N 58°47' E 010°45'1 1.3
2017-Mar-27 04:33N 58°48' E 010°43'1 1.4
2017-Mar-27 03:33N 58°50' E 010°43'1 1.3
2017-Mar-27 02:33N 58°51' E 010°43'1 1.4
2017-Mar-27 01:33N 58°52' E 010°42'2 1.6
2017-Mar-27 00:33N 58°54' E 010°42'0 0.1
2017-Mar-26 23:33N 58°54' E 010°42'1 1.3
2017-Mar-26 22:33N 58°53' E 010°42'1 1.4
2017-Mar-26 21:33N 58°51' E 010°43'1 1.4
2017-Mar-26 20:33N 58°50' E 010°43'1 1.5
2017-Mar-26 19:33N 58°48' E 010°43'1 1.5
2017-Mar-26 18:33N 58°47' E 010°44'2 1.5
2017-Mar-26 17:33N 58°46' E 010°44'6 6.4
2017-Mar-26 16:33N 58°51' E 010°50'7 6.6
2017-Mar-26 15:34N 58°56' E 010°59'6 5.8
2017-Mar-26 14:33N 58°56' E 011°10'0 0.0
2017-Mar-26 13:33N 58°56' E 011°10'0 0.0
2017-Mar-26 12:33N 58°56' E 011°10'0 0.0
2017-Mar-26 11:33N 58°56' E 011°10'0 0.0
2017-Mar-26 10:33N 58°56' E 011°10'0 0.0
2017-Mar-26 09:33N 58°56' E 011°10'0 0.0
2017-Mar-26 08:33N 58°56' E 011°10'0 0.0
2017-Mar-26 07:33N 58°56' E 011°10'0 0.0
2017-Mar-26 06:33N 58°56' E 011°10'0 0.0
2017-Mar-26 05:33N 58°56' E 011°10'0 0.0
2017-Mar-26 04:33N 58°56' E 011°10'0 0.0
2017-Mar-26 03:33N 58°56' E 011°10'0 0.0
2017-Mar-26 02:33N 58°56' E 011°10'0 0.0
2017-Mar-26 01:33N 58°56' E 011°10'0 0.0
2017-Mar-26 00:33N 58°56' E 011°10'0 0.0
2017-Mar-25 23:33N 58°56' E 011°10'0 0.0
2017-Mar-25 22:33N 58°56' E 011°10'0 0.0
2017-Mar-25 21:33N 58°56' E 011°10'0 0.0
2017-Mar-25 20:33N 58°56' E 011°10'0 0.0
2017-Mar-25 19:33N 58°56' E 011°10'0 0.0
2017-Mar-25 18:33N 58°56' E 011°10'0 0.0
2017-Mar-25 17:33N 58°56' E 011°10'0 0.0
2017-Mar-25 16:33N 58°56' E 011°10'0 0.0
2017-Mar-25 15:33N 58°56' E 011°10'0 0.0
2017-Mar-25 14:33N 58°56' E 011°10'0 0.0
2017-Mar-25 13:33N 58°56' E 011°10'0 0.0
2017-Mar-25 12:33N 58°56' E 011°10'0 0.0
2017-Mar-25 11:33N 58°56' E 011°10'0 0.0
2017-Mar-25 10:33N 58°56' E 011°10'0 0.0
2017-Mar-25 09:33N 58°56' E 011°10'0 0.0
2017-Mar-25 08:33N 58°56' E 011°10'0 0.0
2017-Mar-25 07:33N 58°56' E 011°10'0 0.0
2017-Mar-25 06:33N 58°56' E 011°10'0 0.0
2017-Mar-25 05:33N 58°56' E 011°10'0 0.0
2017-Mar-25 04:33N 58°56' E 011°10'0 0.0
2017-Mar-25 03:33N 58°56' E 011°10'0 0.0
2017-Mar-25 02:33N 58°56' E 011°10'0 0.0
2017-Mar-25 01:33N 58°56' E 011°10'0 0.0
2017-Mar-25 00:33N 58°56' E 011°10'0 0.0
2017-Mar-24 23:33N 58°56' E 011°10'0 0.0
2017-Mar-24 22:33N 58°56' E 011°10'0 0.0
2017-Mar-24 21:33N 58°56' E 011°10'0 0.0
2017-Mar-24 20:33N 58°56' E 011°10'0 0.0
2017-Mar-24 19:33N 58°56' E 011°10'0 0.0
2017-Mar-24 18:33N 58°56' E 011°10'0 0.0
2017-Mar-24 17:33N 58°56' E 011°10'0 0.0
2017-Mar-24 16:34N 58°56' E 011°10'0 0.0
2017-Mar-24 15:33N 58°56' E 011°10'0 0.0
2017-Mar-24 14:34N 58°56' E 011°10'0 0.0
2017-Mar-24 13:33N 58°56' E 011°10'0 0.0
2017-Mar-24 12:33N 58°56' E 011°10'0 0.0
2017-Mar-24 11:33N 58°56' E 011°10'0 0.0
2017-Mar-24 10:33N 58°56' E 011°10'0 0.4
2017-Mar-24 09:33N 58°56' E 011°10'0 0.4
2017-Mar-24 08:33N 58°56' E 011°10'0 0.0
2017-Mar-24 07:33N 58°56' E 011°10'0 0.0
2017-Mar-24 06:33N 58°56' E 011°10'0 0.0
2017-Mar-24 05:33N 58°56' E 011°10'0 0.0
2017-Mar-24 04:33N 58°56' E 011°10'0 0.0
2017-Mar-24 03:34N 58°56' E 011°10'0 0.0
2017-Mar-24 02:33N 58°56' E 011°10'0 0.0
2017-Mar-24 01:34N 58°56' E 011°10'0 0.0
2017-Mar-24 00:33N 58°56' E 011°10'0 0.0
2017-Mar-23 23:33N 58°56' E 011°10'0 0.0
2017-Mar-23 22:33N 58°56' E 011°10'0 0.0
2017-Mar-23 21:33N 58°56' E 011°10'0 0.0
2017-Mar-23 20:34N 58°56' E 011°10'0 0.0
2017-Mar-23 19:33N 58°56' E 011°10'0 0.0
2017-Mar-23 18:33N 58°56' E 011°10'0 0.0
2017-Mar-23 17:33N 58°56' E 011°10'0 0.0
2017-Mar-23 16:33N 58°56' E 011°10'0 0.0
2017-Mar-23 15:33N 58°56' E 011°10'0 0.0
2017-Mar-23 14:34N 58°56' E 011°10'0 0.0
2017-Mar-23 13:34N 58°56' E 011°10'0 0.0
2017-Mar-23 12:33N 58°56' E 011°10'0 0.0
2017-Mar-23 11:33N 58°56' E 011°10'0 0.0
2017-Mar-23 10:33N 58°56' E 011°10'0 0.0
2017-Mar-23 09:33N 58°56' E 011°10'0 0.0
2017-Mar-23 08:33N 58°56' E 011°10'0 0.0
2017-Mar-23 07:33N 58°56' E 011°10'0 0.0
2017-Mar-23 06:33N 58°56' E 011°10'0 0.0
2017-Mar-23 05:33N 58°56' E 011°10'0 0.0
2017-Mar-23 04:33N 58°56' E 011°10'0 0.0
2017-Mar-23 03:33N 58°56' E 011°10'0 0.0
2017-Mar-23 02:33N 58°56' E 011°10'0 0.0
2017-Mar-23 01:33N 58°56' E 011°10'0 0.0
2017-Mar-23 00:33N 58°56' E 011°10'0 0.0
2017-Mar-22 23:33N 58°56' E 011°10'0 0.0
2017-Mar-22 22:33N 58°56' E 011°10'0 0.0
2017-Mar-22 21:33N 58°56' E 011°10'0 0.0
2017-Mar-22 20:33N 58°56' E 011°10'0 0.0
2017-Mar-22 19:33N 58°56' E 011°10'0 0.0
2017-Mar-22 18:33N 58°56' E 011°10'0 0.0
2017-Mar-22 17:33N 58°56' E 011°10'0 0.0
2017-Mar-22 16:33N 58°56' E 011°10'0 0.0
2017-Mar-22 15:33N 58°56' E 011°10'0 0.0
2017-Mar-22 14:33N 58°56' E 011°10'0 0.0
2017-Mar-22 13:33N 58°56' E 011°10'0 0.0
2017-Mar-22 12:33N 58°56' E 011°10'0 0.0
2017-Mar-22 11:33N 58°56' E 011°10'0 0.0
2017-Mar-22 10:33N 58°56' E 011°10'0 0.0
2017-Mar-22 09:33N 58°56' E 011°10'0 0.0
2017-Mar-22 08:33N 58°56' E 011°10'0 0.0
2017-Mar-22 07:33N 58°56' E 011°10'0 0.0
2017-Mar-22 06:33N 58°56' E 011°10'0 0.0
2017-Mar-22 05:33N 58°56' E 011°10'0 0.0
2017-Mar-22 04:33N 58°56' E 011°10'0 0.0
2017-Mar-22 03:33N 58°56' E 011°10'0 0.0
2017-Mar-22 02:33N 58°56' E 011°10'0 0.0
2017-Mar-22 01:33N 58°56' E 011°10'0 0.0
2017-Mar-22 00:33N 58°56' E 011°10'0 0.0
2017-Mar-21 23:33N 58°56' E 011°10'0 0.0
2017-Mar-21 22:33N 58°56' E 011°10'0 0.0
2017-Mar-21 21:33N 58°56' E 011°10'0 0.0
2017-Mar-21 20:33N 58°56' E 011°10'0 0.0
2017-Mar-21 19:33N 58°56' E 011°10'0 0.0
2017-Mar-21 18:33N 58°56' E 011°10'0 0.0
2017-Mar-21 17:33N 58°56' E 011°10'0 0.0
2017-Mar-21 16:33N 58°56' E 011°10'0 0.0
2017-Mar-21 15:33N 58°56' E 011°10'0 0.0
2017-Mar-21 14:33N 58°56' E 011°10'0 0.0
2017-Mar-21 13:33N 58°56' E 011°10'0 0.0
2017-Mar-21 12:33N 58°56' E 011°10'0 0.0
2017-Mar-21 11:33N 58°56' E 011°10'0 0.0
2017-Mar-21 10:33N 58°56' E 011°10'0 0.0
2017-Mar-21 09:33N 58°56' E 011°10'0 0.0
2017-Mar-21 08:33N 58°56' E 011°10'0 0.0
2017-Mar-21 07:33N 58°56' E 011°10'0 0.0
2017-Mar-21 06:33N 58°56' E 011°10'0 0.0
2017-Mar-21 05:33N 58°56' E 011°10'0 0.0
2017-Mar-21 04:33N 58°56' E 011°10'0 0.0
2017-Mar-21 03:33N 58°56' E 011°10'0 0.0
2017-Mar-21 02:33N 58°56' E 011°10'0 0.0
2017-Mar-21 01:33N 58°56' E 011°10'0 0.0
2017-Mar-21 00:33N 58°56' E 011°10'0 0.0
2017-Mar-20 23:33N 58°56' E 011°10'0 0.0
2017-Mar-20 22:33N 58°56' E 011°10'0 0.0
2017-Mar-20 21:33N 58°56' E 011°10'4 4.1
2017-Mar-20 20:33N 58°56' E 011°02'7 6.5
2017-Mar-20 19:33N 58°52' E 010°53'3 3.2
2017-Mar-20 18:33N 58°48' E 010°53'2 1.6
2017-Mar-20 17:33N 58°47' E 010°53'1 0.6
2017-Mar-20 16:33N 58°47' E 010°54'1 1.4
2017-Mar-20 15:33N 58°48' E 010°52'1 1.4
2017-Mar-20 14:33N 58°49' E 010°49'1 1.1
2017-Mar-20 13:33N 58°50' E 010°48'1 1.3
2017-Mar-20 12:33N 58°50' E 010°51'0 0.4
2017-Mar-20 11:33N 58°50' E 010°51'1 1.1
2017-Mar-20 10:33N 58°51' E 010°50'1 1.1
2017-Mar-20 09:33N 58°50' E 010°49'1 1.5
2017-Mar-20 08:33N 58°49' E 010°50'2 1.5
2017-Mar-20 07:33N 58°48' E 010°53'1 1.2
2017-Mar-20 06:33N 58°47' E 010°54'0 0.3
2017-Mar-20 05:33N 58°47' E 010°54'1 1.4
2017-Mar-20 04:33N 58°48' E 010°52'1 1.4
2017-Mar-20 03:33N 58°49' E 010°50'1 1.2
2017-Mar-20 02:33N 58°50' E 010°48'1 1.3
2017-Mar-20 01:33N 58°51' E 010°49'1 1.1
2017-Mar-20 00:33N 58°52' E 010°48'1 1.4
2017-Mar-19 23:33N 58°53' E 010°49'0 0.3
2017-Mar-19 22:33N 58°53' E 010°49'1 0.6
2017-Mar-19 21:33N 58°53' E 010°49'1 1.3
2017-Mar-19 20:33N 58°54' E 010°50'7 7.4
2017-Mar-19 19:33N 58°56' E 011°04'3 3.3
2017-Mar-19 18:33N 58°56' E 011°10'0 0.0
2017-Mar-19 17:33N 58°56' E 011°10'0 0.0
2017-Mar-19 16:33N 58°56' E 011°10'0 0.0
2017-Mar-19 15:33N 58°56' E 011°10'0 0.0
2017-Mar-19 14:33N 58°56' E 011°10'0 0.0
2017-Mar-19 13:33N 58°56' E 011°10'0 0.0
2017-Mar-19 12:33N 58°56' E 011°10'0 0.0
2017-Mar-19 11:33N 58°56' E 011°10'0 0.0
2017-Mar-19 10:33N 58°56' E 011°10'0 0.0
2017-Mar-19 09:33N 58°56' E 011°10'0 0.0
2017-Mar-19 08:33N 58°56' E 011°10'0 0.0
2017-Mar-19 07:33N 58°56' E 011°10'0 0.0
2017-Mar-19 06:33N 58°56' E 011°10'0 0.0
2017-Mar-19 05:33N 58°56' E 011°10'0 0.0
2017-Mar-19 04:33N 58°56' E 011°10'0 0.0
2017-Mar-19 03:33N 58°56' E 011°10'0 0.0
2017-Mar-19 02:33N 58°56' E 011°10'0 0.0
2017-Mar-19 01:33N 58°56' E 011°10'0 0.0
2017-Mar-19 00:33N 58°56' E 011°10'0 0.0
2017-Mar-18 23:33N 58°56' E 011°10'0 0.0
2017-Mar-18 22:33N 58°56' E 011°10'0 0.0
2017-Mar-18 21:33N 58°56' E 011°10'0 0.0
2017-Mar-18 20:33N 58°56' E 011°10'0 0.0
2017-Mar-18 19:33N 58°56' E 011°10'0 0.0
2017-Mar-18 18:33N 58°56' E 011°10'0 0.0
2017-Mar-18 17:33N 58°56' E 011°10'0 0.0
2017-Mar-18 16:33N 58°56' E 011°10'0 0.0
2017-Mar-18 15:33N 58°56' E 011°10'  
Track history (hours):
 
Tides and Currents Weather Stations Pressure Air Temp Water Temp Dewpoint Dewpoint Depression Visibility Wind Speed Wind Dir Waves Ship Positions

Sd416 Nippon

Last reported at 2017-Mar-28 15:33 UTC. Time now 2017-Mar-28 15:52 UTC.
Position N 58°52' E 010°40'.

Length 17 m; draft 2.5 m.

Type: Fishing. MMSI: 266163000.

Date/timePositionNaut miles runAvg speedWind from/ knotsBaromVisibWave heightAir tempDewpointWater temp
2017-Mar-28 15:33N 58°52' E 010°40'1 1.4
2017-Mar-28 14:33N 58°51' E 010°42'1 1.3
2017-Mar-28 13:33N 58°50' E 010°43'1 1.2
2017-Mar-28 12:34N 58°50' E 010°45'1 1.4
2017-Mar-28 11:33N 58°51' E 010°46'1 1.3
2017-Mar-28 10:33N 58°52' E 010°46'1 1.1
2017-Mar-28 09:33N 58°51' E 010°44'1 0.7
2017-Mar-28 08:33N 58°51' E 010°44'1 1.0
2017-Mar-28 07:33N 58°50' E 010°46'1 1.4
2017-Mar-28 06:33N 58°51' E 010°48'1 1.3
2017-Mar-28 05:33N 58°52' E 010°48'1 1.5
2017-Mar-28 04:33N 58°53' E 010°49'0 0.1
2017-Mar-28 03:34N 58°53' E 010°49'0 0.3
2017-Mar-28 02:33N 58°53' E 010°48'1 1.2
2017-Mar-28 01:33N 58°54' E 010°50'1 1.1
2017-Mar-28 00:33N 58°53' E 010°49'1 1.3
2017-Mar-27 23:33N 58°52' E 010°47'1 1.4
2017-Mar-27 22:34N 58°51' E 010°47'1 1.2
2017-Mar-27 21:33N 58°51' E 010°50'1 1.2
2017-Mar-27 20:34N 58°49' E 010°49'1 1.5
2017-Mar-27 19:33N 58°48' E 010°48'1 1.1
2017-Mar-27 18:33N 58°48' E 010°46'1 1.4
2017-Mar-27 17:33N 58°49' E 010°46'1 1.3
2017-Mar-27 16:33N 58°50' E 010°46'1 1.3
2017-Mar-27 15:33N 58°51' E 010°44'1 0.8
2017-Mar-27 14:33N 58°51' E 010°42'1 1.4
2017-Mar-27 13:34N 58°50' E 010°43'1 1.3
2017-Mar-27 12:33N 58°48' E 010°43'1 1.3
2017-Mar-27 11:33N 58°47' E 010°43'1 1.4
2017-Mar-27 10:34N 58°46' E 010°44'1 1.1
2017-Mar-27 09:33N 58°47' E 010°43'1 1.5
2017-Mar-27 08:33N 58°48' E 010°43'1 1.4
2017-Mar-27 07:33N 58°50' E 010°45'1 1.2
2017-Mar-27 06:33N 58°49' E 010°46'1 1.4
2017-Mar-27 05:33N 58°47' E 010°45'1 1.3
2017-Mar-27 04:33N 58°48' E 010°43'1 1.4
2017-Mar-27 03:33N 58°50' E 010°43'1 1.3
2017-Mar-27 02:33N 58°51' E 010°43'1 1.4
2017-Mar-27 01:33N 58°52' E 010°42'2 1.6
2017-Mar-27 00:33N 58°54' E 010°42'0 0.1
2017-Mar-26 23:33N 58°54' E 010°42'1 1.3
2017-Mar-26 22:33N 58°53' E 010°42'1 1.4
2017-Mar-26 21:33N 58°51' E 010°43'1 1.4
2017-Mar-26 20:33N 58°50' E 010°43'1 1.5
2017-Mar-26 19:33N 58°48' E 010°43'1 1.5
2017-Mar-26 18:33N 58°47' E 010°44'2 1.5
2017-Mar-26 17:33N 58°46' E 010°44'6 6.4
2017-Mar-26 16:33N 58°51' E 010°50'7 6.6
2017-Mar-26 15:34N 58°56' E 010°59'6 5.8
2017-Mar-26 14:33N 58°56' E 011°10'0 0.0
2017-Mar-26 13:33N 58°56' E 011°10'0 0.0
2017-Mar-26 12:33N 58°56' E 011°10'0 0.0
2017-Mar-26 11:33N 58°56' E 011°10'0 0.0
2017-Mar-26 10:33N 58°56' E 011°10'0 0.0
2017-Mar-26 09:33N 58°56' E 011°10'0 0.0
2017-Mar-26 08:33N 58°56' E 011°10'0 0.0
2017-Mar-26 07:33N 58°56' E 011°10'0 0.0
2017-Mar-26 06:33N 58°56' E 011°10'0 0.0
2017-Mar-26 05:33N 58°56' E 011°10'0 0.0
2017-Mar-26 04:33N 58°56' E 011°10'0 0.0
2017-Mar-26 03:33N 58°56' E 011°10'0 0.0
2017-Mar-26 02:33N 58°56' E 011°10'0 0.0
2017-Mar-26 01:33N 58°56' E 011°10'0 0.0
2017-Mar-26 00:33N 58°56' E 011°10'0 0.0
2017-Mar-25 23:33N 58°56' E 011°10'0 0.0
2017-Mar-25 22:33N 58°56' E 011°10'0 0.0
2017-Mar-25 21:33N 58°56' E 011°10'0 0.0
2017-Mar-25 20:33N 58°56' E 011°10'0 0.0
2017-Mar-25 19:33N 58°56' E 011°10'0 0.0
2017-Mar-25 18:33N 58°56' E 011°10'0 0.0
2017-Mar-25 17:33N 58°56' E 011°10'0 0.0
2017-Mar-25 16:33N 58°56' E 011°10'0 0.0
2017-Mar-25 15:33N 58°56' E 011°10'0 0.0
2017-Mar-25 14:33N 58°56' E 011°10'0 0.0
2017-Mar-25 13:33N 58°56' E 011°10'0 0.0
2017-Mar-25 12:33N 58°56' E 011°10'0 0.0
2017-Mar-25 11:33N 58°56' E 011°10'0 0.0
2017-Mar-25 10:33N 58°56' E 011°10'0 0.0
2017-Mar-25 09:33N 58°56' E 011°10'0 0.0
2017-Mar-25 08:33N 58°56' E 011°10'0 0.0
2017-Mar-25 07:33N 58°56' E 011°10'0 0.0
2017-Mar-25 06:33N 58°56' E 011°10'0 0.0
2017-Mar-25 05:33N 58°56' E 011°10'0 0.0
2017-Mar-25 04:33N 58°56' E 011°10'0 0.0
2017-Mar-25 03:33N 58°56' E 011°10'0 0.0
2017-Mar-25 02:33N 58°56' E 011°10'0 0.0
2017-Mar-25 01:33N 58°56' E 011°10'0 0.0
2017-Mar-25 00:33N 58°56' E 011°10'0 0.0
2017-Mar-24 23:33N 58°56' E 011°10'0 0.0
2017-Mar-24 22:33N 58°56' E 011°10'0 0.0
2017-Mar-24 21:33N 58°56' E 011°10'0 0.0
2017-Mar-24 20:33N 58°56' E 011°10'0 0.0
2017-Mar-24 19:33N 58°56' E 011°10'0 0.0
2017-Mar-24 18:33N 58°56' E 011°10'0 0.0
2017-Mar-24 17:33N 58°56' E 011°10'0 0.0
2017-Mar-24 16:34N 58°56' E 011°10'0 0.0
2017-Mar-24 15:33N 58°56' E 011°10'0 0.0
2017-Mar-24 14:34N 58°56' E 011°10'0 0.0
2017-Mar-24 13:33N 58°56' E 011°10'0 0.0
2017-Mar-24 12:33N 58°56' E 011°10'0 0.0
2017-Mar-24 11:33N 58°56' E 011°10'0 0.0
2017-Mar-24 10:33N 58°56' E 011°10'0 0.4
2017-Mar-24 09:33N 58°56' E 011°10'0 0.4
2017-Mar-24 08:33N 58°56' E 011°10'0 0.0
2017-Mar-24 07:33N 58°56' E 011°10'0 0.0
2017-Mar-24 06:33N 58°56' E 011°10'0 0.0
2017-Mar-24 05:33N 58°56' E 011°10'0 0.0
2017-Mar-24 04:33N 58°56' E 011°10'0 0.0
2017-Mar-24 03:34N 58°56' E 011°10'0 0.0
2017-Mar-24 02:33N 58°56' E 011°10'0 0.0
2017-Mar-24 01:34N 58°56' E 011°10'0 0.0
2017-Mar-24 00:33N 58°56' E 011°10'0 0.0
2017-Mar-23 23:33N 58°56' E 011°10'0 0.0
2017-Mar-23 22:33N 58°56' E 011°10'0 0.0
2017-Mar-23 21:33N 58°56' E 011°10'0 0.0
2017-Mar-23 20:34N 58°56' E 011°10'0 0.0
2017-Mar-23 19:33N 58°56' E 011°10'0 0.0
2017-Mar-23 18:33N 58°56' E 011°10'0 0.0
2017-Mar-23 17:33N 58°56' E 011°10'0 0.0
2017-Mar-23 16:33N 58°56' E 011°10'0 0.0
2017-Mar-23 15:33N 58°56' E 011°10'0 0.0
2017-Mar-23 14:34N 58°56' E 011°10'0 0.0
2017-Mar-23 13:34N 58°56' E 011°10'0 0.0
2017-Mar-23 12:33N 58°56' E 011°10'0 0.0
2017-Mar-23 11:33N 58°56' E 011°10'0 0.0
2017-Mar-23 10:33N 58°56' E 011°10'0 0.0
2017-Mar-23 09:33N 58°56' E 011°10'0 0.0
2017-Mar-23 08:33N 58°56' E 011°10'0 0.0
2017-Mar-23 07:33N 58°56' E 011°10'0 0.0
2017-Mar-23 06:33N 58°56' E 011°10'0 0.0
2017-Mar-23 05:33N 58°56' E 011°10'0 0.0
2017-Mar-23 04:33N 58°56' E 011°10'0 0.0
2017-Mar-23 03:33N 58°56' E 011°10'0 0.0
2017-Mar-23 02:33N 58°56' E 011°10'0 0.0
2017-Mar-23 01:33N 58°56' E 011°10'0 0.0
2017-Mar-23 00:33N 58°56' E 011°10'0 0.0
2017-Mar-22 23:33N 58°56' E 011°10'0 0.0
2017-Mar-22 22:33N 58°56' E 011°10'0 0.0
2017-Mar-22 21:33N 58°56' E 011°10'0 0.0
2017-Mar-22 20:33N 58°56' E 011°10'0 0.0
2017-Mar-22 19:33N 58°56' E 011°10'0 0.0
2017-Mar-22 18:33N 58°56' E 011°10'0 0.0
2017-Mar-22 17:33N 58°56' E 011°10'0 0.0
2017-Mar-22 16:33N 58°56' E 011°10'0 0.0
2017-Mar-22 15:33N 58°56' E 011°10'0 0.0
2017-Mar-22 14:33N 58°56' E 011°10'0 0.0
2017-Mar-22 13:33N 58°56' E 011°10'0 0.0
2017-Mar-22 12:33N 58°56' E 011°10'0 0.0
2017-Mar-22 11:33N 58°56' E 011°10'0 0.0
2017-Mar-22 10:33N 58°56' E 011°10'0 0.0
2017-Mar-22 09:33N 58°56' E 011°10'0 0.0
2017-Mar-22 08:33N 58°56' E 011°10'0 0.0
2017-Mar-22 07:33N 58°56' E 011°10'0 0.0
2017-Mar-22 06:33N 58°56' E 011°10'0 0.0
2017-Mar-22 05:33N 58°56' E 011°10'0 0.0
2017-Mar-22 04:33N 58°56' E 011°10'0 0.0
2017-Mar-22 03:33N 58°56' E 011°10'0 0.0
2017-Mar-22 02:33N 58°56' E 011°10'0 0.0
2017-Mar-22 01:33N 58°56' E 011°10'0 0.0
2017-Mar-22 00:33N 58°56' E 011°10'0 0.0
2017-Mar-21 23:33N 58°56' E 011°10'0 0.0
2017-Mar-21 22:33N 58°56' E 011°10'0 0.0
2017-Mar-21 21:33N 58°56' E 011°10'0 0.0
2017-Mar-21 20:33N 58°56' E 011°10'0 0.0
2017-Mar-21 19:33N 58°56' E 011°10'0 0.0
2017-Mar-21 18:33N 58°56' E 011°10'0 0.0
2017-Mar-21 17:33N 58°56' E 011°10'0 0.0
2017-Mar-21 16:33N 58°56' E 011°10'0 0.0
2017-Mar-21 15:33N 58°56' E 011°10'0 0.0
2017-Mar-21 14:33N 58°56' E 011°10'0 0.0
2017-Mar-21 13:33N 58°56' E 011°10'0 0.0
2017-Mar-21 12:33N 58°56' E 011°10'0 0.0
2017-Mar-21 11:33N 58°56' E 011°10'0 0.0
2017-Mar-21 10:33N 58°56' E 011°10'0 0.0
2017-Mar-21 09:33N 58°56' E 011°10'0 0.0
2017-Mar-21 08:33N 58°56' E 011°10'0 0.0
2017-Mar-21 07:33N 58°56' E 011°10'0 0.0
2017-Mar-21 06:33N 58°56' E 011°10'0 0.0
2017-Mar-21 05:33N 58°56' E 011°10'0 0.0
2017-Mar-21 04:33N 58°56' E 011°10'0 0.0
2017-Mar-21 03:33N 58°56' E 011°10'0 0.0
2017-Mar-21 02:33N 58°56' E 011°10'0 0.0
2017-Mar-21 01:33N 58°56' E 011°10'0 0.0
2017-Mar-21 00:33N 58°56' E 011°10'0 0.0
2017-Mar-20 23:33N 58°56' E 011°10'0 0.0
2017-Mar-20 22:33N 58°56' E 011°10'0 0.0
2017-Mar-20 21:33N 58°56' E 011°10'4 4.1
2017-Mar-20 20:33N 58°56' E 011°02'7 6.5
2017-Mar-20 19:33N 58°52' E 010°53'3 3.2
2017-Mar-20 18:33N 58°48' E 010°53'2 1.6
2017-Mar-20 17:33N 58°47' E 010°53'1 0.6
2017-Mar-20 16:33N 58°47' E 010°54'1 1.4
2017-Mar-20 15:33N 58°48' E 010°52'1 1.4
2017-Mar-20 14:33N 58°49' E 010°49'1 1.1
2017-Mar-20 13:33N 58°50' E 010°48'1 1.3
2017-Mar-20 12:33N 58°50' E 010°51'0 0.4
2017-Mar-20 11:33N 58°50' E 010°51'1 1.1
2017-Mar-20 10:33N 58°51' E 010°50'1 1.1
2017-Mar-20 09:33N 58°50' E 010°49'1 1.5
2017-Mar-20 08:33N 58°49' E 010°50'2 1.5
2017-Mar-20 07:33N 58°48' E 010°53'1 1.2
2017-Mar-20 06:33N 58°47' E 010°54'0 0.3
2017-Mar-20 05:33N 58°47' E 010°54'1 1.4
2017-Mar-20 04:33N 58°48' E 010°52'1 1.4
2017-Mar-20 03:33N 58°49' E 010°50'1 1.2
2017-Mar-20 02:33N 58°50' E 010°48'1 1.3
2017-Mar-20 01:33N 58°51' E 010°49'1 1.1
2017-Mar-20 00:33N 58°52' E 010°48'1 1.4
2017-Mar-19 23:33N 58°53' E 010°49'0 0.3
2017-Mar-19 22:33N 58°53' E 010°49'1 0.6
2017-Mar-19 21:33N 58°53' E 010°49'1 1.3
2017-Mar-19 20:33N 58°54' E 010°50'7 7.4
2017-Mar-19 19:33N 58°56' E 011°04'3 3.3
2017-Mar-19 18:33N 58°56' E 011°10'0 0.0
2017-Mar-19 17:33N 58°56' E 011°10'0 0.0
2017-Mar-19 16:33N 58°56' E 011°10'0 0.0
2017-Mar-19 15:33N 58°56' E 011°10'0 0.0
2017-Mar-19 14:33N 58°56' E 011°10'0 0.0
2017-Mar-19 13:33N 58°56' E 011°10'0 0.0
2017-Mar-19 12:33N 58°56' E 011°10'0 0.0
2017-Mar-19 11:33N 58°56' E 011°10'0 0.0
2017-Mar-19 10:33N 58°56' E 011°10'0 0.0
2017-Mar-19 09:33N 58°56' E 011°10'0 0.0
2017-Mar-19 08:33N 58°56' E 011°10'0 0.0
2017-Mar-19 07:33N 58°56' E 011°10'0 0.0
2017-Mar-19 06:33N 58°56' E 011°10'0 0.0
2017-Mar-19 05:33N 58°56' E 011°10'0 0.0
2017-Mar-19 04:33N 58°56' E 011°10'0 0.0
2017-Mar-19 03:33N 58°56' E 011°10'0 0.0
2017-Mar-19 02:33N 58°56' E 011°10'0 0.0
2017-Mar-19 01:33N 58°56' E 011°10'0 0.0
2017-Mar-19 00:33N 58°56' E 011°10'0 0.0
2017-Mar-18 23:33N 58°56' E 011°10'0 0.0
2017-Mar-18 22:33N 58°56' E 011°10'0 0.0
2017-Mar-18 21:33N 58°56' E 011°10'0 0.0
2017-Mar-18 20:33N 58°56' E 011°10'0 0.0
2017-Mar-18 19:33N 58°56' E 011°10'0 0.0
2017-Mar-18 18:33N 58°56' E 011°10'0 0.0
2017-Mar-18 17:33N 58°56' E 011°10'0 0.0
2017-Mar-18 16:33N 58°56' E 011°10'0 0.0
2017-Mar-18 15:33N 58°56' E 011°10'  

Dump ship's entire track history